createdAt,value
2017-10-31T00:00:03.807Z,1017.18
2017-10-31T00:01:13.779Z,1017.21
2017-10-31T00:02:23.741Z,1017.21
2017-10-31T00:03:34.039Z,1017.23
2017-10-31T00:04:44.018Z,1017.23
2017-10-31T00:05:54.226Z,1017.19
2017-10-31T00:07:04.521Z,1017.21
2017-10-31T00:08:14.481Z,1017.17
2017-10-31T00:09:24.813Z,1017.2
2017-10-31T00:10:34.444Z,1017.18
2017-10-31T00:11:44.674Z,1017.2
2017-10-31T00:12:54.991Z,1017.12
2017-10-31T00:14:05.275Z,1017.07
2017-10-31T00:15:15.565Z,1017.15
2017-10-31T00:16:25.852Z,1017.05
2017-10-31T00:17:35.110Z,1017.06
2017-10-31T00:18:45.407Z,1017.04
2017-10-31T00:19:55.368Z,1017.04
2017-10-31T00:21:05.663Z,1017.1
2017-10-31T00:22:15.955Z,1017.02
2017-10-31T00:23:26.603Z,1017.07
2017-10-31T00:24:36.558Z,1017.05
2017-10-31T00:25:46.853Z,1017.12
2017-10-31T00:26:56.816Z,1017
2017-10-31T00:28:06.783Z,1016.99
2017-10-31T00:29:17.328Z,1016.99
2017-10-31T00:30:27.623Z,1017.06
2017-10-31T00:31:37.919Z,1017
2017-10-31T00:32:47.909Z,1016.97
2017-10-31T00:33:58.221Z,1016.96
2017-10-31T00:35:08.443Z,1016.96
2017-10-31T00:36:18.739Z,1016.99
2017-10-31T00:37:29.033Z,1016.96
2017-10-31T00:38:38.999Z,1016.99
2017-10-31T00:39:48.987Z,1017.01
2017-10-31T00:40:58.886Z,1017.03
2017-10-31T00:42:08.522Z,1017.05
2017-10-31T00:43:18.811Z,1017.02
2017-10-31T00:44:29.113Z,1017.03
2017-10-31T00:45:39.416Z,1017.06
2017-10-31T00:46:49.955Z,1017.08
2017-10-31T00:47:59.930Z,1017.15
2017-10-31T00:49:10.233Z,1017.07
2017-10-31T00:50:20.542Z,1017
2017-10-31T00:51:30.528Z,1017.1
2017-10-31T00:52:41.065Z,1017.01
2017-10-31T00:53:51.036Z,1017.02
2017-10-31T00:55:00.996Z,1017.03
2017-10-31T00:56:11.303Z,1017
2017-10-31T00:57:21.284Z,1016.94
2017-10-31T00:58:31.493Z,1016.96
2017-10-31T00:59:41.776Z,1017
2017-10-31T01:00:52.087Z,1017.02
2017-10-31T01:02:02.396Z,1017.01
2017-10-31T01:03:12.678Z,1017.01
2017-10-31T01:04:23.229Z,1016.97
2017-10-31T01:05:33.532Z,1017
2017-10-31T01:06:43.826Z,1016.99
2017-10-31T01:07:54.134Z,1016.93
2017-10-31T01:09:04.094Z,1016.99
2017-10-31T01:10:14.641Z,1016.97
2017-10-31T01:11:24.945Z,1017.05
2017-10-31T01:12:34.577Z,1016.98
2017-10-31T01:13:44.901Z,1016.96
2017-10-31T01:14:55.199Z,1017.02
2017-10-31T01:16:05.415Z,1017.08
2017-10-31T01:17:15.715Z,1017.04
2017-10-31T01:18:26.018Z,1017.04
2017-10-31T01:19:36.299Z,1017.01
2017-10-31T01:20:46.590Z,1017.05
2017-10-31T01:21:57.136Z,1016.97
2017-10-31T01:23:07.422Z,1017.02
2017-10-31T01:24:17.737Z,1017.04
2017-10-31T01:25:27.703Z,1017.08
2017-10-31T01:26:37.996Z,1017.08
2017-10-31T01:27:48.536Z,1017.05
2017-10-31T01:28:58.496Z,1017.02
2017-10-31T01:30:08.810Z,1017.12
2017-10-31T01:31:18.799Z,1017.04
2017-10-31T01:32:29.106Z,1017.04
2017-10-31T01:33:39.645Z,1017.05
2017-10-31T01:34:49.936Z,1017.01
2017-10-31T01:36:00.234Z,1017.01
2017-10-31T01:37:10.519Z,1017.02
2017-10-31T01:38:20.498Z,1017.05
2017-10-31T01:39:31.038Z,1017.07
2017-10-31T01:40:41.323Z,1017.07
2017-10-31T01:41:51.624Z,1017
2017-10-31T01:43:01.916Z,1016.99
2017-10-31T01:44:11.896Z,1016.98
2017-10-31T01:45:22.116Z,1017.12
2017-10-31T01:46:32.423Z,1016.96
2017-10-31T01:47:42.715Z,1016.99
2017-10-31T01:48:52.676Z,1016.95
2017-10-31T01:50:02.965Z,1016.96
2017-10-31T01:51:13.515Z,1016.97
2017-10-31T01:52:23.812Z,1016.97
2017-10-31T01:53:33.775Z,1016.97
2017-10-31T01:54:44.074Z,1017.01
2017-10-31T01:55:54.365Z,1016.98
2017-10-31T01:57:04.581Z,1016.99
2017-10-31T01:58:14.865Z,1016.96
2017-10-31T01:59:25.161Z,1017
2017-10-31T02:00:35.137Z,1017.02
2017-10-31T02:01:45.421Z,1017
2017-10-31T02:02:55.958Z,1016.98
2017-10-31T02:04:05.921Z,1016.98
2017-10-31T02:05:16.222Z,1016.99
2017-10-31T02:06:26.185Z,1016.93
2017-10-31T02:07:35.841Z,1017.02
2017-10-31T02:08:46.379Z,1016.9
2017-10-31T02:09:56.334Z,1016.96
2017-10-31T02:11:06.633Z,1017
2017-10-31T02:12:16.595Z,1016.89
2017-10-31T02:13:26.231Z,1016.93
2017-10-31T02:14:36.781Z,1016.92
2017-10-31T02:15:47.080Z,1016.87
2017-10-31T02:16:57.362Z,1016.83
2017-10-31T02:18:06.998Z,1016.85
2017-10-31T02:19:16.627Z,1016.87
2017-10-31T02:20:27.186Z,1016.93
2017-10-31T02:21:37.143Z,1016.85
2017-10-31T02:22:47.434Z,1016.86
2017-10-31T02:23:57.396Z,1016.84
2017-10-31T02:25:07.705Z,1016.88
2017-10-31T02:26:17.922Z,1016.81
2017-10-31T02:27:27.894Z,1016.92
2017-10-31T02:28:37.852Z,1016.85
2017-10-31T02:29:47.508Z,1016.83
2017-10-31T02:30:57.799Z,1016.8
2017-10-31T02:32:08.362Z,1016.86
2017-10-31T02:33:18.655Z,1016.79
2017-10-31T02:34:28.940Z,1016.8
2017-10-31T02:35:39.253Z,1016.82
2017-10-31T02:36:49.564Z,1016.82
2017-10-31T02:37:59.773Z,1016.8
2017-10-31T02:39:10.069Z,1016.81
2017-10-31T02:40:20.043Z,1016.78
2017-10-31T02:41:30.009Z,1016.9
2017-10-31T02:42:39.984Z,1016.76
2017-10-31T02:43:50.531Z,1016.73
2017-10-31T02:45:00.826Z,1016.84
2017-10-31T02:46:11.142Z,1016.79
2017-10-31T02:47:21.424Z,1016.82
2017-10-31T02:48:31.710Z,1016.81
2017-10-31T02:49:42.296Z,1016.88
2017-10-31T02:50:52.605Z,1016.81
2017-10-31T02:52:02.563Z,1016.84
2017-10-31T02:53:12.853Z,1016.82
2017-10-31T02:54:22.832Z,1016.84
2017-10-31T02:55:32.724Z,1016.84
2017-10-31T02:56:43.033Z,1016.83
2017-10-31T02:57:53.337Z,1016.84
2017-10-31T02:59:03.655Z,1016.89
2017-10-31T03:00:13.950Z,1016.84
2017-10-31T03:01:24.509Z,1016.8
2017-10-31T03:02:34.485Z,1016.83
2017-10-31T03:03:44.130Z,1016.82
2017-10-31T03:04:54.097Z,1016.85
2017-10-31T03:06:04.404Z,1016.82
2017-10-31T03:07:14.941Z,1016.84
2017-10-31T03:08:25.227Z,1016.84
2017-10-31T03:09:35.521Z,1016.82
2017-10-31T03:10:45.823Z,1016.8
2017-10-31T03:11:55.786Z,1016.84
2017-10-31T03:13:06.360Z,1016.82
2017-10-31T03:14:16.651Z,1016.84
2017-10-31T03:15:26.623Z,1016.82
2017-10-31T03:16:36.581Z,1016.92
2017-10-31T03:17:46.860Z,1016.94
2017-10-31T03:18:57.403Z,1016.86
2017-10-31T03:20:07.365Z,1016.92
2017-10-31T03:21:17.657Z,1016.94
2017-10-31T03:22:27.976Z,1016.88
2017-10-31T03:23:38.261Z,1016.96
2017-10-31T03:24:48.518Z,1016.97
2017-10-31T03:25:58.809Z,1016.92
2017-10-31T03:27:08.786Z,1016.92
2017-10-31T03:28:19.087Z,1016.91
2017-10-31T03:29:29.375Z,1016.84
2017-10-31T03:30:39.917Z,1016.93
2017-10-31T03:31:50.226Z,1017.02
2017-10-31T03:33:00.186Z,1016.96
2017-10-31T03:34:10.474Z,1016.93
2017-10-31T03:35:20.769Z,1016.89
2017-10-31T03:36:31.305Z,1016.91
2017-10-31T03:37:41.618Z,1016.88
2017-10-31T03:38:51.919Z,1016.93
2017-10-31T03:40:02.206Z,1016.9
2017-10-31T03:41:12.501Z,1016.94
2017-10-31T03:42:23.046Z,1016.9
2017-10-31T03:43:33.361Z,1016.89
2017-10-31T03:44:43.331Z,1016.94
2017-10-31T03:45:53.618Z,1016.88
2017-10-31T03:47:03.930Z,1016.84
2017-10-31T03:48:14.471Z,1016.88
2017-10-31T03:49:24.764Z,1016.92
2017-10-31T03:50:35.060Z,1016.9
2017-10-31T03:51:45.366Z,1016.87
2017-10-31T03:52:55.661Z,1016.89
2017-10-31T03:54:06.211Z,1016.89
2017-10-31T03:55:16.494Z,1016.88
2017-10-31T03:56:26.799Z,1016.89
2017-10-31T03:57:36.764Z,1016.85
2017-10-31T03:58:46.739Z,1016.85
2017-10-31T03:59:57.283Z,1016.84
2017-10-31T04:01:07.247Z,1016.92
2017-10-31T04:02:17.525Z,1016.81
2017-10-31T04:03:27.815Z,1016.86
2017-10-31T04:04:38.113Z,1016.85
2017-10-31T04:05:48.324Z,1016.85
2017-10-31T04:06:58.277Z,1016.89
2017-10-31T04:08:08.587Z,1016.77
2017-10-31T04:09:18.869Z,1016.78
2017-10-31T04:10:29.156Z,1016.85
2017-10-31T04:11:39.364Z,1016.85
2017-10-31T04:12:49.333Z,1016.8
2017-10-31T04:13:59.628Z,1016.81
2017-10-31T04:15:09.581Z,1016.94
2017-10-31T04:16:19.536Z,1016.84
2017-10-31T04:17:30.076Z,1016.85
2017-10-31T04:18:40.360Z,1016.81
2017-10-31T04:19:50.312Z,1016.77
2017-10-31T04:21:00.601Z,1016.88
2017-10-31T04:22:10.888Z,1016.86
2017-10-31T04:23:21.116Z,1016.87
2017-10-31T04:24:31.081Z,1016.81
2017-10-31T04:25:41.046Z,1016.86
2017-10-31T04:26:51.337Z,1016.76
2017-10-31T04:28:01.291Z,1016.83
2017-10-31T04:29:11.494Z,1016.79
2017-10-31T04:30:21.784Z,1016.81
2017-10-31T04:31:32.063Z,1016.82
2017-10-31T04:32:42.376Z,1016.87
2017-10-31T04:33:52.338Z,1016.88
2017-10-31T04:35:02.922Z,1016.91
2017-10-31T04:36:12.901Z,1016.9
2017-10-31T04:37:22.536Z,1016.84
2017-10-31T04:38:32.503Z,1016.9
2017-10-31T04:39:42.793Z,1016.85
2017-10-31T04:40:53.009Z,1016.89
2017-10-31T04:42:02.970Z,1016.94
2017-10-31T04:43:12.926Z,1016.84
2017-10-31T04:44:22.566Z,1016.89
2017-10-31T04:45:32.853Z,1016.84
2017-10-31T04:46:43.386Z,1016.96
2017-10-31T04:47:53.677Z,1016.91
2017-10-31T04:49:03.970Z,1016.85
2017-10-31T04:50:13.605Z,1016.91
2017-10-31T04:51:23.884Z,1016.91
2017-10-31T04:52:34.414Z,1016.86
2017-10-31T04:53:44.383Z,1016.89
2017-10-31T04:54:54.338Z,1016.85
2017-10-31T04:56:04.624Z,1016.97
2017-10-31T04:57:14.921Z,1016.89
2017-10-31T04:58:25.452Z,1016.93
2017-10-31T04:59:35.734Z,1016.84
2017-10-31T05:00:46.017Z,1016.84
2017-10-31T05:01:56.317Z,1016.9
2017-10-31T05:03:06.606Z,1016.82
2017-10-31T05:04:16.815Z,1016.85
2017-10-31T05:05:27.101Z,1016.8
2017-10-31T05:06:37.395Z,1016.82
2017-10-31T05:07:47.689Z,1016.79
2017-10-31T05:08:57.654Z,1016.81
2017-10-31T05:10:08.209Z,1016.87
2017-10-31T05:11:17.848Z,1016.79
2017-10-31T05:12:28.145Z,1016.8
2017-10-31T05:13:38.106Z,1016.81
2017-10-31T05:14:48.389Z,1016.77
2017-10-31T05:15:58.644Z,1016.77
2017-10-31T05:17:07.953Z,1016.8
2017-10-31T05:18:17.919Z,1016.86
2017-10-31T05:19:28.210Z,1016.83
2017-10-31T05:20:38.505Z,1016.78
2017-10-31T05:21:49.062Z,1016.79
2017-10-31T05:22:59.027Z,1016.84
2017-10-31T05:24:09.300Z,1016.8
2017-10-31T05:25:19.263Z,1016.81
2017-10-31T05:26:29.537Z,1016.76
2017-10-31T05:27:39.753Z,1016.79
2017-10-31T05:28:50.047Z,1016.82
2017-10-31T05:30:00.328Z,1016.78
2017-10-31T05:31:10.301Z,1016.78
2017-10-31T05:32:20.594Z,1016.8
2017-10-31T05:33:31.135Z,1016.75
2017-10-31T05:34:41.421Z,1016.77
2017-10-31T05:35:51.390Z,1016.82
2017-10-31T05:37:01.679Z,1016.88
2017-10-31T05:38:11.974Z,1016.85
2017-10-31T05:39:22.507Z,1016.86
2017-10-31T05:40:32.798Z,1016.94
2017-10-31T05:41:43.082Z,1016.85
2017-10-31T05:42:53.378Z,1016.93
2017-10-31T05:44:03.675Z,1016.92
2017-10-31T05:45:14.216Z,1016.9
2017-10-31T05:46:24.494Z,1016.94
2017-10-31T05:47:34.124Z,1016.96
2017-10-31T05:48:43.756Z,1016.99
2017-10-31T05:49:53.732Z,1017
2017-10-31T05:51:04.286Z,1017.02
2017-10-31T05:52:14.577Z,1017.09
2017-10-31T05:53:24.534Z,1017.03
2017-10-31T05:54:34.834Z,1017.09
2017-10-31T05:55:45.122Z,1017.04
2017-10-31T05:56:55.328Z,1017.05
2017-10-31T05:58:04.953Z,1017.07
2017-10-31T05:59:15.239Z,1017.11
2017-10-31T06:00:25.534Z,1017.09
2017-10-31T06:01:35.820Z,1017.12
2017-10-31T06:02:46.362Z,1017.12
2017-10-31T06:03:56.773Z,1017.14
2017-10-31T06:05:07.061Z,1017.17
2017-10-31T06:06:17.371Z,1017.22
2017-10-31T06:07:27.342Z,1017.2
2017-10-31T06:08:37.564Z,1017.21
2017-10-31T06:09:47.545Z,1017.28
2017-10-31T06:10:57.831Z,1017.28
2017-10-31T06:12:08.137Z,1017.28
2017-10-31T06:13:17.781Z,1017.26
2017-10-31T06:14:28.327Z,1017.24
2017-10-31T06:15:38.633Z,1017.26
2017-10-31T06:16:48.934Z,1017.32
2017-10-31T06:17:59.238Z,1017.33
2017-10-31T06:19:09.230Z,1017.38
2017-10-31T06:20:19.781Z,1017.32
2017-10-31T06:21:30.082Z,1017.35
2017-10-31T06:22:39.718Z,1017.34
2017-10-31T06:23:49.680Z,1017.39
2017-10-31T06:24:59.971Z,1017.35
2017-10-31T06:26:10.513Z,1017.41
2017-10-31T06:27:20.795Z,1017.39
2017-10-31T06:28:31.081Z,1017.4
2017-10-31T06:29:41.372Z,1017.47
2017-10-31T06:30:51.016Z,1017.44
2017-10-31T06:32:01.556Z,1017.44
2017-10-31T06:33:11.839Z,1017.46
2017-10-31T06:34:21.483Z,1017.54
2017-10-31T06:35:31.443Z,1017.56
2017-10-31T06:36:41.758Z,1017.52
2017-10-31T06:37:51.994Z,1017.53
2017-10-31T06:39:01.628Z,1017.49
2017-10-31T06:40:11.261Z,1017.5
2017-10-31T06:41:21.551Z,1017.54
2017-10-31T06:42:31.518Z,1017.57
2017-10-31T06:43:42.064Z,1017.59
2017-10-31T06:44:52.027Z,1017.6
2017-10-31T06:46:02.324Z,1017.57
2017-10-31T06:47:12.615Z,1017.62
2017-10-31T06:48:22.916Z,1017.56
2017-10-31T06:49:32.870Z,1017.57
2017-10-31T06:50:43.161Z,1017.65
2017-10-31T06:51:53.443Z,1017.66
2017-10-31T06:53:03.411Z,1017.68
2017-10-31T06:54:13.700Z,1017.65
2017-10-31T06:55:24.295Z,1017.59
2017-10-31T06:56:34.262Z,1017.55
2017-10-31T06:57:44.243Z,1017.6
2017-10-31T06:58:54.215Z,1017.57
2017-10-31T07:00:04.507Z,1017.48
2017-10-31T07:01:15.048Z,1017.53
2017-10-31T07:02:25.022Z,1017.56
2017-10-31T07:03:35.329Z,1017.62
2017-10-31T07:04:45.305Z,1017.56
2017-10-31T07:05:55.584Z,1017.62
2017-10-31T07:07:06.172Z,1017.67
2017-10-31T07:08:16.133Z,1017.59
2017-10-31T07:09:26.420Z,1017.7
2017-10-31T07:10:36.704Z,1017.65
2017-10-31T07:11:47.000Z,1017.63
2017-10-31T07:12:57.539Z,1017.66
2017-10-31T07:14:07.848Z,1017.69
2017-10-31T07:15:18.154Z,1017.64
2017-10-31T07:16:28.445Z,1017.77
2017-10-31T07:17:38.737Z,1017.7
2017-10-31T07:18:49.282Z,1017.73
2017-10-31T07:19:58.922Z,1017.73
2017-10-31T07:21:09.219Z,1017.71
2017-10-31T07:22:19.503Z,1017.72
2017-10-31T07:23:29.469Z,1017.68
2017-10-31T07:24:39.705Z,1017.72
2017-10-31T07:25:49.679Z,1017.69
2017-10-31T07:26:59.642Z,1017.64
2017-10-31T07:28:09.293Z,1017.72
2017-10-31T07:29:19.586Z,1017.69
2017-10-31T07:30:29.812Z,1017.75
2017-10-31T07:31:40.109Z,1017.71
2017-10-31T07:32:50.077Z,1017.74
2017-10-31T07:34:00.371Z,1017.77
2017-10-31T07:35:10.658Z,1017.8
2017-10-31T07:36:21.230Z,1017.79
2017-10-31T07:37:31.529Z,1017.78
2017-10-31T07:38:41.494Z,1017.79
2017-10-31T07:39:51.459Z,1017.77
2017-10-31T07:41:01.114Z,1017.74
2017-10-31T07:42:11.332Z,1017.76
2017-10-31T07:43:21.650Z,1017.79
2017-10-31T07:44:31.943Z,1017.78
2017-10-31T07:45:42.246Z,1017.77
2017-10-31T07:46:52.539Z,1017.79
2017-10-31T07:48:03.085Z,1017.78
2017-10-31T07:49:13.059Z,1017.9
2017-10-31T07:50:23.392Z,1017.82
2017-10-31T07:51:33.698Z,1017.81
2017-10-31T07:52:43.982Z,1017.79
2017-10-31T07:53:54.202Z,1017.93
2017-10-31T07:55:04.494Z,1017.83
2017-10-31T07:56:14.794Z,1017.9
2017-10-31T07:57:25.085Z,1017.78
2017-10-31T07:58:34.734Z,1017.86
2017-10-31T07:59:44.956Z,1017.89
2017-10-31T08:00:54.921Z,1017.84
2017-10-31T08:02:05.438Z,1017.81
2017-10-31T08:03:15.084Z,1017.96
2017-10-31T08:04:25.046Z,1017.98
2017-10-31T08:05:35.592Z,1017.97
2017-10-31T08:06:45.253Z,1017.88
2017-10-31T08:07:55.549Z,1017.91
2017-10-31T08:09:05.852Z,1017.89
2017-10-31T08:10:15.484Z,1017.89
2017-10-31T08:11:26.022Z,1017.92
2017-10-31T08:12:36.319Z,1017.92
2017-10-31T08:13:46.608Z,1017.92
2017-10-31T08:14:56.594Z,1017.95
2017-10-31T08:16:06.562Z,1017.97
2017-10-31T08:17:17.108Z,1017.89
2017-10-31T08:18:27.412Z,1017.84
2017-10-31T08:19:37.711Z,1017.88
2017-10-31T08:20:47.669Z,1017.88
2017-10-31T08:21:57.966Z,1017.86
2017-10-31T08:23:08.178Z,1017.84
2017-10-31T08:24:18.483Z,1017.9
2017-10-31T08:25:28.777Z,1017.97
2017-10-31T08:26:39.066Z,1017.95
2017-10-31T08:27:49.049Z,1018.1
2017-10-31T08:28:59.579Z,1018.02
2017-10-31T08:30:09.552Z,1018.03
2017-10-31T08:31:19.871Z,1017.95
2017-10-31T08:32:30.170Z,1018
2017-10-31T08:33:40.456Z,1017.91
2017-10-31T08:34:50.687Z,1018.02
2017-10-31T08:36:00.656Z,1018
2017-10-31T08:37:10.623Z,1018.01
2017-10-31T08:38:20.922Z,1017.97
2017-10-31T08:39:31.213Z,1017.98
2017-10-31T08:40:41.768Z,1017.97
2017-10-31T08:41:51.738Z,1017.99
2017-10-31T08:43:01.700Z,1017.94
2017-10-31T08:44:11.676Z,1018.05
2017-10-31T08:45:21.644Z,1018.05
2017-10-31T08:46:32.201Z,1018.01
2017-10-31T08:47:42.495Z,1018.02
2017-10-31T08:48:53.182Z,1017.89
2017-10-31T08:50:03.491Z,1017.95
2017-10-31T08:51:13.786Z,1017.95
2017-10-31T08:52:24.328Z,1017.86
2017-10-31T08:53:34.309Z,1017.9
2017-10-31T08:54:44.625Z,1017.92
2017-10-31T08:55:54.309Z,1017.94
2017-10-31T08:57:04.286Z,1017.88
2017-10-31T08:58:14.559Z,1017.89
2017-10-31T08:59:24.836Z,1017.96
2017-10-31T09:00:34.813Z,1018.02
2017-10-31T09:01:45.098Z,1018.08
2017-10-31T09:02:55.389Z,1018
2017-10-31T09:04:05.961Z,1018.08
2017-10-31T09:05:16.252Z,1018.09
2017-10-31T09:06:26.556Z,1018.12
2017-10-31T09:07:36.853Z,1018.06
2017-10-31T09:08:47.157Z,1018.07
2017-10-31T09:09:57.770Z,1018.03
2017-10-31T09:11:08.064Z,1018.05
2017-10-31T09:12:18.378Z,1018.02
2017-10-31T09:13:28.675Z,1018.11
2017-10-31T09:14:38.970Z,1018.06
2017-10-31T09:15:49.528Z,1018.08
2017-10-31T09:16:59.830Z,1018.02
2017-10-31T09:18:10.149Z,1018.03
2017-10-31T09:19:20.448Z,1018.04
2017-10-31T09:20:30.413Z,1018.03
2017-10-31T09:21:40.968Z,1018.01
2017-10-31T09:22:51.254Z,1018.02
2017-10-31T09:24:01.581Z,1018.18
2017-10-31T09:25:11.876Z,1018.07
2017-10-31T09:26:22.174Z,1018.02
2017-10-31T09:27:32.707Z,1018.02
2017-10-31T09:28:43.003Z,1017.9
2017-10-31T09:29:52.976Z,1017.96
2017-10-31T09:31:02.946Z,1017.88
2017-10-31T09:32:12.936Z,1018.01
2017-10-31T09:33:23.492Z,1018
2017-10-31T09:34:33.151Z,1017.96
2017-10-31T09:35:43.484Z,1018
2017-10-31T09:36:53.770Z,1017.97
2017-10-31T09:38:03.745Z,1017.95
2017-10-31T09:39:14.294Z,1017.94
2017-10-31T09:40:24.258Z,1017.96
2017-10-31T09:41:34.240Z,1017.95
2017-10-31T09:42:44.233Z,1018.1
2017-10-31T09:43:54.206Z,1018.01
2017-10-31T09:45:04.754Z,1017.97
2017-10-31T09:46:14.082Z,1018.01
2017-10-31T09:47:24.391Z,1018.02
2017-10-31T09:48:34.358Z,1017.99
2017-10-31T09:49:44.656Z,1017.99
2017-10-31T09:50:54.888Z,1018.07
2017-10-31T09:52:05.185Z,1018.04
2017-10-31T09:53:15.475Z,1018.01
2017-10-31T09:54:25.768Z,1017.96
2017-10-31T09:55:36.067Z,1017.95
2017-10-31T09:56:46.300Z,1018
2017-10-31T09:57:56.614Z,1017.99
2017-10-31T09:59:06.941Z,1018
2017-10-31T10:00:16.586Z,1017.97
2017-10-31T10:01:25.896Z,1017.98
2017-10-31T10:02:36.445Z,1018.04
2017-10-31T10:03:46.419Z,1018.04
2017-10-31T10:04:56.722Z,1018.01
2017-10-31T10:06:07.019Z,1017.98
2017-10-31T10:07:17.325Z,1018.04
2017-10-31T10:08:27.553Z,1017.97
2017-10-31T10:09:37.857Z,1017.94
2017-10-31T10:10:47.823Z,1017.91
2017-10-31T10:11:57.799Z,1017.86
2017-10-31T10:13:08.100Z,1017.99
2017-10-31T10:14:18.325Z,1017.88
2017-10-31T10:15:28.624Z,1017.89
2017-10-31T10:16:38.262Z,1017.96
2017-10-31T10:17:47.913Z,1018.01
2017-10-31T10:18:57.886Z,1017.93
2017-10-31T10:20:08.476Z,1017.9
2017-10-31T10:21:18.795Z,1017.91
2017-10-31T10:22:29.111Z,1017.9
2017-10-31T10:23:39.412Z,1018.06
2017-10-31T10:24:49.417Z,1017.97
2017-10-31T10:25:59.988Z,1017.84
2017-10-31T10:27:09.945Z,1017.83
2017-10-31T10:28:20.273Z,1017.85
2017-10-31T10:29:30.253Z,1017.85
2017-10-31T10:30:40.239Z,1017.83
2017-10-31T10:31:50.454Z,1017.89
2017-10-31T10:33:00.755Z,1017.9
2017-10-31T10:34:10.750Z,1017.98
2017-10-31T10:35:21.058Z,1017.82
2017-10-31T10:36:31.393Z,1017.82
2017-10-31T10:37:42.009Z,1017.97
2017-10-31T10:38:51.988Z,1017.93
2017-10-31T10:40:01.975Z,1017.9
2017-10-31T10:41:11.281Z,1017.94
2017-10-31T10:42:21.581Z,1017.87
2017-10-31T10:43:31.818Z,1017.82
2017-10-31T10:44:41.812Z,1017.84
2017-10-31T10:45:51.464Z,1017.82
2017-10-31T10:47:01.460Z,1017.82
2017-10-31T10:48:11.099Z,1017.87
2017-10-31T10:49:21.695Z,1017.78
2017-10-31T10:50:31.983Z,1017.84
2017-10-31T10:51:42.302Z,1017.78
2017-10-31T10:52:52.948Z,1017.74
2017-10-31T10:54:03.245Z,1017.83
2017-10-31T10:55:13.800Z,1017.85
2017-10-31T10:56:23.780Z,1017.82
2017-10-31T10:57:34.072Z,1017.78
2017-10-31T10:58:44.093Z,1017.81
2017-10-31T10:59:54.404Z,1017.73
2017-10-31T11:01:04.975Z,1017.74
2017-10-31T11:02:15.295Z,1017.78
2017-10-31T11:03:25.277Z,1017.77
2017-10-31T11:04:35.585Z,1017.76
2017-10-31T11:05:45.889Z,1017.79
2017-10-31T11:06:56.457Z,1017.78
2017-10-31T11:08:06.753Z,1017.81
2017-10-31T11:09:16.726Z,1017.78
2017-10-31T11:10:27.054Z,1017.83
2017-10-31T11:11:37.370Z,1017.81
2017-10-31T11:12:47.923Z,1017.77
2017-10-31T11:13:58.223Z,1017.8
2017-10-31T11:15:07.904Z,1017.76
2017-10-31T11:16:18.208Z,1017.76
2017-10-31T11:17:27.863Z,1017.85
2017-10-31T11:18:38.406Z,1017.91
2017-10-31T11:19:48.367Z,1017.86
2017-10-31T11:20:58.666Z,1017.84
2017-10-31T11:22:08.631Z,1017.89
2017-10-31T11:23:18.936Z,1017.98
2017-10-31T11:24:29.154Z,1017.87
2017-10-31T11:25:39.452Z,1017.92
2017-10-31T11:26:49.133Z,1017.91
2017-10-31T11:27:59.462Z,1017.92
2017-10-31T11:29:09.773Z,1017.96
2017-10-31T11:30:20.369Z,1017.87
2017-10-31T11:31:30.675Z,1017.96
2017-10-31T11:32:40.998Z,1017.9
2017-10-31T11:33:51.288Z,1017.89
2017-10-31T11:35:01.280Z,1017.89
2017-10-31T11:36:11.818Z,1017.94
2017-10-31T11:37:22.152Z,1017.88
2017-10-31T11:38:32.458Z,1017.83
2017-10-31T11:39:42.762Z,1017.87
2017-10-31T11:40:53.054Z,1017.82
2017-10-31T11:42:03.613Z,1017.89
2017-10-31T11:43:14.142Z,1017.85
2017-10-31T11:44:24.443Z,1017.87
2017-10-31T11:45:34.767Z,1017.96
2017-10-31T11:46:45.057Z,1017.79
2017-10-31T11:47:55.286Z,1017.84
2017-10-31T11:49:05.605Z,1017.91
2017-10-31T11:50:15.595Z,1017.75
2017-10-31T11:51:25.573Z,1017.84
2017-10-31T11:52:35.868Z,1017.8
2017-10-31T11:53:46.482Z,1017.82
2017-10-31T11:54:56.450Z,1017.84
2017-10-31T11:56:06.740Z,1017.83
2017-10-31T11:57:16.394Z,1017.73
2017-10-31T11:58:26.675Z,1017.71
2017-10-31T11:59:36.909Z,1017.77
2017-10-31T12:00:46.873Z,1017.78
2017-10-31T12:01:56.852Z,1017.73
2017-10-31T12:03:06.836Z,1017.77
2017-10-31T12:04:17.142Z,1017.71
2017-10-31T12:05:27.040Z,1017.71
2017-10-31T12:06:36.999Z,1017.71
2017-10-31T12:07:47.309Z,1017.68
2017-10-31T12:08:57.650Z,1017.65
2017-10-31T12:10:07.945Z,1017.64
2017-10-31T12:11:18.499Z,1017.68
2017-10-31T12:12:28.797Z,1017.69
2017-10-31T12:13:38.448Z,1017.62
2017-10-31T12:14:48.743Z,1017.73
2017-10-31T12:15:58.724Z,1017.66
2017-10-31T12:17:09.313Z,1017.69
2017-10-31T12:18:19.602Z,1017.6
2017-10-31T12:19:29.290Z,1017.65
2017-10-31T12:20:39.264Z,1017.66
2017-10-31T12:21:49.244Z,1017.73
2017-10-31T12:22:59.792Z,1017.62
2017-10-31T12:24:09.757Z,1017.75
2017-10-31T12:25:20.053Z,1017.72
2017-10-31T12:26:30.017Z,1017.56
2017-10-31T12:27:40.331Z,1017.54
2017-10-31T12:28:50.874Z,1017.53
2017-10-31T12:30:01.170Z,1017.57
2017-10-31T12:31:11.471Z,1017.56
2017-10-31T12:32:21.772Z,1017.55
2017-10-31T12:33:32.076Z,1017.52
2017-10-31T12:34:42.295Z,1017.54
2017-10-31T12:35:51.945Z,1017.52
2017-10-31T12:37:02.244Z,1017.56
2017-10-31T12:38:12.249Z,1017.54
2017-10-31T12:39:22.563Z,1017.5
2017-10-31T12:40:33.329Z,1017.51
2017-10-31T12:41:43.303Z,1017.51
2017-10-31T12:42:53.616Z,1017.54
2017-10-31T12:44:03.613Z,1017.61
2017-10-31T12:45:13.589Z,1017.55
2017-10-31T12:46:23.528Z,1017.5
2017-10-31T12:47:33.496Z,1017.51
2017-10-31T12:48:43.823Z,1017.53
2017-10-31T12:49:54.137Z,1017.54
2017-10-31T12:51:04.440Z,1017.54
2017-10-31T12:52:14.656Z,1017.49
2017-10-31T12:53:24.960Z,1017.53
2017-10-31T12:54:34.943Z,1017.54
2017-10-31T12:55:45.238Z,1017.52
2017-10-31T12:56:55.217Z,1017.51
2017-10-31T12:58:05.771Z,1017.51
2017-10-31T12:59:16.071Z,1017.46
2017-10-31T13:00:26.436Z,1017.45
2017-10-31T13:01:36.409Z,1017.53
2017-10-31T13:02:46.710Z,1017.57
2017-10-31T13:03:57.256Z,1017.55
2017-10-31T13:05:07.539Z,1017.48
2017-10-31T13:06:17.826Z,1017.53
2017-10-31T13:07:28.135Z,1017.51
2017-10-31T13:08:38.430Z,1017.55
2017-10-31T13:09:48.315Z,1017.44
2017-10-31T13:10:58.292Z,1017.59
2017-10-31T13:12:08.586Z,1017.45
2017-10-31T13:13:18.873Z,1017.47
2017-10-31T13:14:29.174Z,1017.55
2017-10-31T13:15:39.118Z,1017.5
2017-10-31T13:16:49.424Z,1017.48
2017-10-31T13:17:59.721Z,1017.53
2017-10-31T13:19:09.703Z,1017.47
2017-10-31T13:20:19.704Z,1017.54
2017-10-31T13:21:30.268Z,1017.52
2017-10-31T13:22:40.588Z,1017.45
2017-10-31T13:23:50.898Z,1017.47
2017-10-31T13:25:00.880Z,1017.58
2017-10-31T13:26:11.217Z,1017.64
2017-10-31T13:27:21.753Z,1017.62
2017-10-31T13:28:32.051Z,1017.54
2017-10-31T13:29:41.689Z,1017.48
2017-10-31T13:30:51.340Z,1017.51
2017-10-31T13:32:01.309Z,1017.53
2017-10-31T13:33:11.855Z,1017.5
2017-10-31T13:34:22.149Z,1017.63
2017-10-31T13:35:31.786Z,1017.48
2017-10-31T13:36:42.091Z,1017.55
2017-10-31T13:37:52.058Z,1017.45
2017-10-31T13:39:02.617Z,1017.44
2017-10-31T13:40:12.275Z,1017.38
2017-10-31T13:41:22.607Z,1017.39
2017-10-31T13:42:32.923Z,1017.58
2017-10-31T13:43:42.901Z,1017.42
2017-10-31T13:44:53.455Z,1017.42
2017-10-31T13:46:03.779Z,1017.39
2017-10-31T13:47:14.085Z,1017.44
2017-10-31T13:48:24.391Z,1017.46
2017-10-31T13:49:34.363Z,1017.47
2017-10-31T13:50:44.258Z,1017.47
2017-10-31T13:51:54.599Z,1017.48
2017-10-31T13:53:04.910Z,1017.47
2017-10-31T13:54:15.232Z,1017.44
2017-10-31T13:55:24.905Z,1017.47
2017-10-31T13:56:35.478Z,1017.51
2017-10-31T13:57:45.451Z,1017.44
2017-10-31T13:58:55.435Z,1017.49
2017-10-31T14:00:05.744Z,1017.41
2017-10-31T14:01:16.056Z,1017.47
2017-10-31T14:02:26.277Z,1017.47
2017-10-31T14:03:36.581Z,1017.41
2017-10-31T14:04:46.876Z,1017.41
2017-10-31T14:05:57.185Z,1017.38
2017-10-31T14:07:07.165Z,1017.49
2017-10-31T14:08:17.709Z,1017.43
2017-10-31T14:09:27.362Z,1017.5
2017-10-31T14:10:37.344Z,1017.47
2017-10-31T14:11:47.659Z,1017.44
2017-10-31T14:12:57.964Z,1017.44